sensor_id;sensor_type;location;lat;lon;timestamp;pressure;altitude;pressure_sealevel;temperature;humidity
65227;BME280;51805;49.012;12.104;2023-04-04T00:01:25;98637.47;;;21.93;43.55
65227;BME280;51805;49.012;12.104;2023-04-04T00:03:51;98640.44;;;21.91;43.41
65227;BME280;51805;49.012;12.104;2023-04-04T00:06:17;98651.31;;;22.01;43.69
65227;BME280;51805;49.012;12.104;2023-04-04T00:08:42;98640.50;;;22.01;43.37
65227;BME280;51805;49.012;12.104;2023-04-04T00:11:08;98630.16;;;21.93;43.58
65227;BME280;51805;49.012;12.104;2023-04-04T00:13:33;98631.53;;;21.96;43.56
65227;BME280;51805;49.012;12.104;2023-04-04T00:15:58;98625.00;;;21.92;43.50
65227;BME280;51805;49.012;12.104;2023-04-04T00:18:24;98623.13;;;21.92;43.81
65227;BME280;51805;49.012;12.104;2023-04-04T00:20:49;98625.31;;;21.95;43.73
65227;BME280;51805;49.012;12.104;2023-04-04T00:23:14;98621.78;;;21.95;43.60
65227;BME280;51805;49.012;12.104;2023-04-04T00:25:40;98613.91;;;21.93;43.40
65227;BME280;51805;49.012;12.104;2023-04-04T00:28:05;98627.69;;;21.92;43.61
65227;BME280;51805;49.012;12.104;2023-04-04T00:30:30;98633.41;;;21.95;43.53
65227;BME280;51805;49.012;12.104;2023-04-04T00:32:56;98636.44;;;21.99;43.74
65227;BME280;51805;49.012;12.104;2023-04-04T00:35:21;98632.84;;;21.93;43.65
65227;BME280;51805;49.012;12.104;2023-04-04T00:37:47;98622.56;;;21.90;43.77
65227;BME280;51805;49.012;12.104;2023-04-04T00:40:12;98631.28;;;21.97;43.62
65227;BME280;51805;49.012;12.104;2023-04-04T00:42:37;98632.91;;;21.98;43.56
65227;BME280;51805;49.012;12.104;2023-04-04T00:45:05;98625.03;;;21.97;43.58
65227;BME280;51805;49.012;12.104;2023-04-04T00:47:31;98613.06;;;21.88;43.69
65227;BME280;51805;49.012;12.104;2023-04-04T00:49:57;98609.81;;;21.86;43.85
65227;BME280;51805;49.012;12.104;2023-04-04T00:52:22;98618.28;;;21.94;43.82
65227;BME280;51805;49.012;12.104;2023-04-04T00:54:47;98604.38;;;21.86;43.74
65227;BME280;51805;49.012;12.104;2023-04-04T00:57:13;98597.03;;;21.81;43.90
65227;BME280;51805;49.012;12.104;2023-04-04T00:59:38;98613.38;;;21.91;44.00
65227;BME280;51805;49.012;12.104;2023-04-04T01:02:04;98598.91;;;21.76;43.85
65227;BME280;51805;49.012;12.104;2023-04-04T01:04:29;98602.97;;;21.78;43.92
65227;BME280;51805;49.012;12.104;2023-04-04T01:06:55;98609.81;;;21.86;44.02
65227;BME280;51805;49.012;12.104;2023-04-04T01:09:21;98621.19;;;21.88;44.10
65227;BME280;51805;49.012;12.104;2023-04-04T01:11:47;98594.00;;;21.73;43.83
65227;BME280;51805;49.012;12.104;2023-04-04T01:14:12;98607.91;;;21.86;43.93
65227;BME280;51805;49.012;12.104;2023-04-04T01:16:38;98616.56;;;21.83;44.07
65227;BME280;51805;49.012;12.104;2023-04-04T01:19:05;98594.88;;;21.78;44.02
65227;BME280;51805;49.012;12.104;2023-04-04T01:21:33;98604.38;;;21.86;43.89
65227;BME280;51805;49.012;12.104;2023-04-04T01:24:00;98606.84;;;21.87;43.83
65227;BME280;51805;49.012;12.104;2023-04-04T01:26:29;98589.81;;;21.87;43.97
65227;BME280;51805;49.012;12.104;2023-04-04T01:28:56;98585.44;;;21.81;43.93
65227;BME280;51805;49.012;12.104;2023-04-04T01:31:42;98581.03;;;21.75;44.14
65227;BME280;51805;49.012;12.104;2023-04-04T01:34:19;98576.94;;;21.72;43.98
65227;BME280;51805;49.012;12.104;2023-04-04T01:37:05;98580.81;;;21.81;44.00
65227;BME280;51805;49.012;12.104;2023-04-04T01:39:50;98582.69;;;21.76;44.18
65227;BME280;51805;49.012;12.104;2023-04-04T01:42:17;98566.31;;;21.66;44.15
65227;BME280;51805;49.012;12.104;2023-04-04T01:44:43;98486.78;;;21.25;44.03
65227;BME280;51805;49.012;12.104;2023-04-04T01:47:11;98573.22;;;21.78;44.20
65227;BME280;51805;49.012;12.104;2023-04-04T01:49:36;98569.06;;;21.71;44.08
65227;BME280;51805;49.012;12.104;2023-04-04T01:52:02;98578.56;;;21.73;44.20
65227;BME280;51805;49.012;12.104;2023-04-04T01:54:27;98583.47;;;21.76;44.37
65227;BME280;51805;49.012;12.104;2023-04-04T01:56:53;98558.22;;;21.66;44.25
65227;BME280;51805;49.012;12.104;2023-04-04T01:59:18;98580.78;;;21.76;44.12
65227;BME280;51805;49.012;12.104;2023-04-04T02:01:43;98581.84;;;21.75;43.92
65227;BME280;51805;49.012;12.104;2023-04-04T02:04:09;98581.34;;;21.78;44.18
65227;BME280;51805;49.012;12.104;2023-04-04T02:06:34;98558.19;;;21.61;44.06
65227;BME280;51805;49.012;12.104;2023-04-04T02:08:59;98560.13;;;21.65;44.02
65227;BME280;51805;49.012;12.104;2023-04-04T02:11:24;98563.63;;;21.66;44.23
65227;BME280;51805;49.012;12.104;2023-04-04T02:13:50;98580.19;;;21.74;44.18
65227;BME280;51805;49.012;12.104;2023-04-04T02:16:15;98586.75;;;21.78;44.21
65227;BME280;51805;49.012;12.104;2023-04-04T02:18:41;98569.03;;;21.66;44.13
65227;BME280;51805;49.012;12.104;2023-04-04T02:21:06;98571.47;;;21.67;44.26
65227;BME280;51805;49.012;12.104;2023-04-04T02:23:32;98581.50;;;21.72;44.26
65227;BME280;51805;49.012;12.104;2023-04-04T02:25:57;98578.00;;;21.71;44.04
65227;BME280;51805;49.012;12.104;2023-04-04T02:28:22;98574.69;;;21.64;44.71
65227;BME280;51805;49.012;12.104;2023-04-04T02:30:48;98575.31;;;21.71;44.18
65227;BME280;51805;49.012;12.104;2023-04-04T02:33:13;98581.75;;;21.65;44.46
65227;BME280;51805;49.012;12.104;2023-04-04T02:35:38;98594.78;;;21.73;44.24
65227;BME280;51805;49.012;12.104;2023-04-04T02:38:04;98562.22;;;21.58;44.43
65227;BME280;51805;49.012;12.104;2023-04-04T02:40:29;98576.38;;;21.70;44.50
65227;BME280;51805;49.012;12.104;2023-04-04T02:42:54;98567.16;;;21.66;44.36
65227;BME280;51805;49.012;12.104;2023-04-04T02:45:19;98555.19;;;21.57;44.17
65227;BME280;51805;49.012;12.104;2023-04-04T02:47:51;98588.31;;;21.74;44.42
65227;BME280;51805;49.012;12.104;2023-04-04T02:50:16;98569.84;;;21.66;44.53
65227;BME280;51805;49.012;12.104;2023-04-04T02:52:42;98580.66;;;21.66;44.45
65227;BME280;51805;49.012;12.104;2023-04-04T02:55:08;98579.59;;;21.67;44.46
65227;BME280;51805;49.012;12.104;2023-04-04T02:57:33;98581.50;;;21.72;44.28
65227;BME280;51805;49.012;12.104;2023-04-04T02:59:59;98585.81;;;21.68;44.59
65227;BME280;51805;49.012;12.104;2023-04-04T03:02:24;98585.56;;;21.69;44.28
65227;BME280;51805;49.012;12.104;2023-04-04T03:04:49;98571.72;;;21.66;44.04
65227;BME280;51805;49.012;12.104;2023-04-04T03:07:15;98557.28;;;21.50;44.46
65227;BME280;51805;49.012;12.104;2023-04-04T03:09:40;98564.66;;;21.60;44.19
65227;BME280;51805;49.012;12.104;2023-04-04T03:12:05;98572.56;;;21.66;44.45
65227;BME280;51805;49.012;12.104;2023-04-04T03:14:31;98574.16;;;21.62;44.38
65227;BME280;51805;49.012;12.104;2023-04-04T03:16:56;98572.00;;;21.64;44.44
65227;BME280;51805;49.012;12.104;2023-04-04T03:19:21;98579.56;;;21.62;44.52
65227;BME280;51805;49.012;12.104;2023-04-04T03:21:46;98575.22;;;21.61;44.40
65227;BME280;51805;49.012;12.104;2023-04-04T03:24:12;98572.00;;;21.64;44.54
65227;BME280;51805;49.012;12.104;2023-04-04T03:26:37;98574.69;;;21.64;44.53
65227;BME280;51805;49.012;12.104;2023-04-04T03:29:02;98584.19;;;21.67;44.31
65227;BME280;51805;49.012;12.104;2023-04-04T03:31:27;98573.91;;;21.64;44.45
65227;BME280;51805;49.012;12.104;2023-04-04T03:33:53;98571.41;;;21.57;44.49
65227;BME280;51805;49.012;12.104;2023-04-04T03:36:18;98570.31;;;21.58;44.52
65227;BME280;51805;49.012;12.104;2023-04-04T03:38:43;98577.13;;;21.66;44.41
65227;BME280;51805;49.012;12.104;2023-04-04T03:41:09;98568.75;;;21.67;44.25
65227;BME280;51805;49.012;12.104;2023-04-04T03:43:35;98565.16;;;21.57;44.60
65227;BME280;51805;49.012;12.104;2023-04-04T03:46:04;98576.03;;;21.62;44.56
65227;BME280;51805;49.012;12.104;2023-04-04T03:48:30;98575.69;;;21.53;44.51
65227;BME280;51805;49.012;12.104;2023-04-04T03:50:56;98580.56;;;21.56;44.69
65227;BME280;51805;49.012;12.104;2023-04-04T03:53:21;98577.88;;;21.56;44.49
65227;BME280;51805;49.012;12.104;2023-04-04T03:55:47;98573.25;;;21.52;44.58
65227;BME280;51805;49.012;12.104;2023-04-04T03:58:12;98564.31;;;21.51;44.59
65227;BME280;51805;49.012;12.104;2023-04-04T04:00:37;98582.22;;;21.57;44.55
65227;BME280;51805;49.012;12.104;2023-04-04T04:03:02;98578.38;;;21.53;44.56
65227;BME280;51805;49.012;12.104;2023-04-04T04:05:28;98573.84;;;21.59;44.27
65227;BME280;51805;49.012;12.104;2023-04-04T04:07:53;98563.19;;;21.47;44.72
65227;BME280;51805;49.012;12.104;2023-04-04T04:10:18;98581.66;;;21.55;44.75
65227;BME280;51805;49.012;12.104;2023-04-04T04:12:44;98572.97;;;21.53;44.58
65227;BME280;51805;49.012;12.104;2023-04-04T04:15:09;98567.50;;;21.43;44.83
65227;BME280;51805;49.012;12.104;2023-04-04T04:17:40;98583.25;;;21.51;44.77
65227;BME280;51805;49.012;12.104;2023-04-04T04:20:07;98583.78;;;21.53;44.77
65227;BME280;51805;49.012;12.104;2023-04-04T04:22:33;98577.78;;;21.46;44.92
65227;BME280;51805;49.012;12.104;2023-04-04T04:24:58;98569.13;;;21.44;44.72
65227;BME280;51805;49.012;12.104;2023-04-04T04:27:23;98576.94;;;21.40;44.90
65227;BME280;51805;49.012;12.104;2023-04-04T04:29:48;98586.44;;;21.43;45.00
65227;BME280;51805;49.012;12.104;2023-04-04T04:32:17;98581.78;;;21.38;45.36
65227;BME280;51805;49.012;12.104;2023-04-04T04:34:43;98578.56;;;21.41;45.06
65227;BME280;51805;49.012;12.104;2023-04-04T04:37:08;98573.94;;;21.37;44.85
65227;BME280;51805;49.012;12.104;2023-04-04T04:39:33;98572.28;;;21.36;44.98
65227;BME280;51805;49.012;12.104;2023-04-04T04:41:59;98592.41;;;21.45;45.06
65227;BME280;51805;49.012;12.104;2023-04-04T04:44:24;98587.00;;;21.45;44.83
65227;BME280;51805;49.012;12.104;2023-04-04T04:46:49;98580.72;;;21.39;45.05
65227;BME280;51805;49.012;12.104;2023-04-04T04:49:14;98581.03;;;21.43;44.92
65227;BME280;51805;49.012;12.104;2023-04-04T04:51:40;98594.03;;;21.46;45.05
65227;BME280;51805;49.012;12.104;2023-04-04T04:54:05;98583.22;;;21.46;45.01
65227;BME280;51805;49.012;12.104;2023-04-04T04:56:30;98577.28;;;21.49;44.80
65227;BME280;51805;49.012;12.104;2023-04-04T04:58:56;98593.50;;;21.49;44.85
65227;BME280;51805;49.012;12.104;2023-04-04T05:01:21;98592.69;;;21.48;45.03
65227;BME280;51805;49.012;12.104;2023-04-04T05:03:47;98588.94;;;21.50;44.88
65227;BME280;51805;49.012;12.104;2023-04-04T05:06:12;98588.94;;;21.50;44.99
65227;BME280;51805;49.012;12.104;2023-04-04T05:08:37;98594.06;;;21.51;44.84
65227;BME280;51805;49.012;12.104;2023-04-04T05:11:02;98576.97;;;21.45;45.00
65227;BME280;51805;49.012;12.104;2023-04-04T05:13:28;98584.81;;;21.47;44.88
65227;BME280;51805;49.012;12.104;2023-04-04T05:15:53;98585.97;;;21.51;44.94
65227;BME280;51805;49.012;12.104;2023-04-04T05:18:18;98593.31;;;21.56;44.80
65227;BME280;51805;49.012;12.104;2023-04-04T05:20:49;98587.88;;;21.56;44.86
65227;BME280;51805;49.012;12.104;2023-04-04T05:23:15;98597.94;;;21.60;44.96
65227;BME280;51805;49.012;12.104;2023-04-04T05:25:40;98597.41;;;21.63;44.85
65227;BME280;51805;49.012;12.104;2023-04-04T05:28:05;98591.97;;;21.58;44.95
65227;BME280;51805;49.012;12.104;2023-04-04T05:30:30;98599.09;;;21.69;44.67
65227;BME280;51805;49.012;12.104;2023-04-04T05:32:56;98588.47;;;21.63;44.76
65227;BME280;51805;49.012;12.104;2023-04-04T05:35:21;98596.38;;;21.69;44.58
65227;BME280;51805;49.012;12.104;2023-04-04T05:37:46;98587.44;;;21.69;44.60
65227;BME280;51805;49.012;12.104;2023-04-04T05:40:11;98601.66;;;21.81;44.38
65227;BME280;51805;49.012;12.104;2023-04-04T05:42:37;98600.56;;;21.82;44.70
65227;BME280;51805;49.012;12.104;2023-04-04T05:45:02;98606.03;;;21.87;44.44
65227;BME280;51805;49.012;12.104;2023-04-04T05:47:28;98602.75;;;21.85;44.53
65227;BME280;51805;49.012;12.104;2023-04-04T05:49:53;98605.22;;;21.86;44.48
65227;BME280;51805;49.012;12.104;2023-04-04T05:52:18;98606.03;;;21.87;44.39
65227;BME280;51805;49.012;12.104;2023-04-04T05:54:44;98606.34;;;21.95;44.44
65227;BME280;51805;49.012;12.104;2023-04-04T05:57:09;98618.84;;;22.01;44.30
65227;BME280;51805;49.012;12.104;2023-04-04T05:59:34;98615.34;;;22.06;44.53
65227;BME280;51805;49.012;12.104;2023-04-04T06:01:59;98602.34;;;22.03;44.09
65227;BME280;51805;49.012;12.104;2023-04-04T06:04:25;98604.84;;;22.09;44.38
65227;BME280;51805;49.012;12.104;2023-04-04T06:06:50;98606.44;;;22.05;44.67
65227;BME280;51805;49.012;12.104;2023-04-04T06:09:15;98611.34;;;22.13;44.54
65227;BME280;51805;49.012;12.104;2023-04-04T06:11:40;98603.00;;;22.20;44.40
65227;BME280;51805;49.012;12.104;2023-04-04T06:14:06;98600.59;;;22.23;44.67
65227;BME280;51805;49.012;12.104;2023-04-04T06:16:31;98601.69;;;22.27;44.57
65227;BME280;51805;49.012;12.104;2023-04-04T06:18:56;98598.19;;;22.32;44.48
65227;BME280;51805;49.012;12.104;2023-04-04T06:21:21;98603.94;;;22.40;44.17
65227;BME280;51805;49.012;12.104;2023-04-04T06:23:47;98608.28;;;22.41;44.39
65227;BME280;51805;49.012;12.104;2023-04-04T06:26:12;98602.84;;;22.41;44.37
65227;BME280;51805;49.012;12.104;2023-04-04T06:28:45;98599.34;;;22.46;44.43
65227;BME280;51805;49.012;12.104;2023-04-04T06:31:11;98607.28;;;22.52;44.37
65227;BME280;51805;49.012;12.104;2023-04-04T06:33:36;98601.06;;;22.57;44.37
65227;BME280;51805;49.012;12.104;2023-04-04T06:36:01;98601.38;;;22.60;44.31
65227;BME280;51805;49.012;12.104;2023-04-04T06:38:26;98602.19;;;22.61;44.42
65227;BME280;51805;49.012;12.104;2023-04-04T06:40:52;98584.28;;;22.60;44.48
65227;BME280;51805;49.012;12.104;2023-04-04T06:43:17;98593.78;;;22.62;44.28
65227;BME280;51805;49.012;12.104;2023-04-04T06:45:42;98603.03;;;22.71;44.37
65227;BME280;51805;49.012;12.104;2023-04-04T06:48:07;98602.22;;;22.71;44.35
65227;BME280;51805;49.012;12.104;2023-04-04T06:50:33;98598.41;;;22.72;44.64
65227;BME280;51805;49.012;12.104;2023-04-04T06:52:59;98597.34;;;22.68;44.70
65227;BME280;51805;49.012;12.104;2023-04-04T06:55:25;98599.78;;;22.69;44.86
65227;BME280;51805;49.012;12.104;2023-04-04T06:57:50;98603.03;;;22.71;45.08
65227;BME280;51805;49.012;12.104;2023-04-04T07:00:16;98604.09;;;22.70;45.17
65227;BME280;51805;49.012;12.104;2023-04-04T07:02:41;98601.66;;;22.69;45.10
65227;BME280;51805;49.012;12.104;2023-04-04T07:05:07;98613.88;;;22.76;45.14
65227;BME280;51805;49.012;12.104;2023-04-04T07:07:32;98598.16;;;22.68;45.13
65227;BME280;51805;49.012;12.104;2023-04-04T07:09:57;98591.66;;;22.69;45.30
65227;BME280;51805;49.012;12.104;2023-04-04T07:12:23;98604.69;;;22.77;45.49
65227;BME280;51805;49.012;12.104;2023-04-04T07:14:48;98604.72;;;22.82;45.20
65227;BME280;51805;49.012;12.104;2023-04-04T07:17:13;98604.72;;;22.82;45.26
65227;BME280;51805;49.012;12.104;2023-04-04T07:19:39;98602.81;;;22.83;45.21
65227;BME280;51805;49.012;12.104;2023-04-04T07:22:04;98594.66;;;22.83;45.39
65227;BME280;51805;49.012;12.104;2023-04-04T07:24:29;98603.09;;;22.86;45.35
65227;BME280;51805;49.012;12.104;2023-04-04T07:26:54;98599.03;;;22.84;45.40
65227;BME280;51805;49.012;12.104;2023-04-04T07:29:20;98609.34;;;22.92;45.40
65227;BME280;51805;49.012;12.104;2023-04-04T07:31:45;98612.91;;;22.97;45.30
65227;BME280;51805;49.012;12.104;2023-04-04T07:34:10;98609.34;;;22.92;45.48
65227;BME280;51805;49.012;12.104;2023-04-04T07:36:35;98594.16;;;22.91;45.31
65227;BME280;51805;49.012;12.104;2023-04-04T07:39:01;98595.53;;;22.88;45.56
65227;BME280;51805;49.012;12.104;2023-04-04T07:41:26;98603.38;;;22.95;45.52
65227;BME280;51805;49.012;12.104;2023-04-04T07:43:51;98603.13;;;23.01;45.47
65227;BME280;51805;49.012;12.104;2023-04-04T07:46:17;98611.53;;;23.00;45.39
65227;BME280;51805;49.012;12.104;2023-04-04T07:48:42;98613.44;;;23.04;45.27
65227;BME280;51805;49.012;12.104;2023-04-04T07:51:08;98591.75;;;22.94;45.35
65227;BME280;51805;49.012;12.104;2023-04-04T07:53:33;98600.16;;;23.03;45.51
65227;BME280;51805;49.012;12.104;2023-04-04T07:55:58;98605.56;;;23.03;45.41
65227;BME280;51805;49.012;12.104;2023-04-04T07:58:24;98595.53;;;22.98;45.41
65227;BME280;51805;49.012;12.104;2023-04-04T08:00:49;98608.03;;;23.10;45.22
65227;BME280;51805;49.012;12.104;2023-04-04T08:03:14;98593.94;;;23.02;45.25
65227;BME280;51805;49.012;12.104;2023-04-04T08:05:42;98606.69;;;23.07;45.49
65227;BME280;51805;49.012;12.104;2023-04-04T08:08:07;98611.31;;;23.12;45.06
65227;BME280;51805;49.012;12.104;2023-04-04T08:10:33;98618.09;;;23.14;45.11
65227;BME280;51805;49.012;12.104;2023-04-04T08:12:58;98565.72;;;22.88;44.94
65227;BME280;51805;49.012;12.104;2023-04-04T08:15:23;98604.25;;;23.16;45.19
65227;BME280;51805;49.012;12.104;2023-04-04T08:17:49;98582.00;;;23.03;44.92
65227;BME280;51805;49.012;12.104;2023-04-04T08:20:14;98591.50;;;23.11;44.96
65227;BME280;51805;49.012;12.104;2023-04-04T08:22:40;98590.69;;;23.11;45.17
65227;BME280;51805;49.012;12.104;2023-04-04T08:25:06;98603.72;;;23.19;45.10
65227;BME280;51805;49.012;12.104;2023-04-04T08:27:32;98584.72;;;23.03;45.11
65227;BME280;51805;49.012;12.104;2023-04-04T08:29:57;98596.41;;;23.14;45.03
65227;BME280;51805;49.012;12.104;2023-04-04T08:32:22;98605.09;;;23.16;45.22
65227;BME280;51805;49.012;12.104;2023-04-04T08:34:48;98600.47;;;23.17;45.16
65227;BME280;51805;49.012;12.104;2023-04-04T08:37:13;98603.16;;;23.17;45.14
65227;BME280;51805;49.012;12.104;2023-04-04T08:39:38;98601.53;;;23.11;45.37
65227;BME280;51805;49.012;12.104;2023-04-04T08:42:05;98611.31;;;23.17;45.06
65227;BME280;51805;49.012;12.104;2023-04-04T08:44:32;98609.69;;;23.16;45.29
65227;BME280;51805;49.012;12.104;2023-04-04T08:47:02;98604.25;;;23.16;45.27
65227;BME280;51805;49.012;12.104;2023-04-04T08:49:29;98609.97;;;23.19;45.20
65227;BME280;51805;49.012;12.104;2023-04-04T08:51:56;98608.31;;;23.18;45.32
65227;BME280;51805;49.012;12.104;2023-04-04T08:54:24;98609.16;;;23.19;45.31
65227;BME280;51805;49.012;12.104;2023-04-04T08:56:50;98616.72;;;23.17;45.36
65227;BME280;51805;49.012;12.104;2023-04-04T08:59:15;98609.16;;;23.19;45.40
65227;BME280;51805;49.012;12.104;2023-04-04T09:01:40;98609.16;;;23.19;45.31
65227;BME280;51805;49.012;12.104;2023-04-04T09:04:07;98598.00;;;23.15;45.25
65227;BME280;51805;49.012;12.104;2023-04-04T09:06:33;98592.59;;;23.15;45.48
65227;BME280;51805;49.012;12.104;2023-04-04T09:08:59;98592.31;;;23.17;45.35
65227;BME280;51805;49.012;12.104;2023-04-04T09:11:26;98580.94;;;23.10;45.26
65227;BME280;51805;49.012;12.104;2023-04-04T09:13:55;98601.56;;;23.16;45.40
65227;BME280;51805;49.012;12.104;2023-04-04T09:16:21;98577.94;;;23.06;45.36
65227;BME280;51805;49.012;12.104;2023-04-04T09:18:46;98599.38;;;23.13;45.55
65227;BME280;51805;49.012;12.104;2023-04-04T09:21:12;98592.34;;;23.12;45.48
65227;BME280;51805;49.012;12.104;2023-04-04T09:23:38;98606.44;;;23.19;45.44
65227;BME280;51805;49.012;12.104;2023-04-04T09:26:04;98598.31;;;23.19;45.36
65227;BME280;51805;49.012;12.104;2023-04-04T09:28:30;98586.38;;;23.15;45.31
65227;BME280;51805;49.012;12.104;2023-04-04T09:30:55;98592.84;;;23.14;45.25
65227;BME280;51805;49.012;12.104;2023-04-04T09:33:22;98599.91;;;23.20;45.27
65227;BME280;51805;49.012;12.104;2023-04-04T09:35:54;98594.00;;;23.23;45.28
65227;BME280;51805;49.012;12.104;2023-04-04T09:38:22;98610.25;;;23.23;45.46
65227;BME280;51805;49.012;12.104;2023-04-04T09:40:47;98601.03;;;23.24;45.40
65227;BME280;51805;49.012;12.104;2023-04-04T09:43:13;98601.03;;;23.24;45.35
65227;BME280;51805;49.012;12.104;2023-04-04T09:45:40;98606.44;;;23.24;45.45
65227;BME280;51805;49.012;12.104;2023-04-04T09:48:06;98603.19;;;23.22;45.39
65227;BME280;51805;49.012;12.104;2023-04-04T09:50:31;98595.03;;;23.17;45.49
65227;BME280;51805;49.012;12.104;2023-04-04T09:52:56;98604.00;;;23.22;45.38
65227;BME280;51805;49.012;12.104;2023-04-04T09:55:30;98601.00;;;23.19;45.45
65227;BME280;51805;49.012;12.104;2023-04-04T09:57:55;98607.28;;;23.24;45.51
65227;BME280;51805;49.012;12.104;2023-04-04T10:00:21;98601.03;;;23.24;45.57
65227;BME280;51805;49.012;12.104;2023-04-04T10:02:47;98602.13;;;23.23;45.58
65227;BME280;51805;49.012;12.104;2023-04-04T10:05:13;98599.97;;;23.25;45.49
65227;BME280;51805;49.012;12.104;2023-04-04T10:07:39;98591.50;;;23.21;45.56
65227;BME280;51805;49.012;12.104;2023-04-04T10:10:05;98597.75;;;23.22;45.62
65227;BME280;51805;49.012;12.104;2023-04-04T10:12:31;98594.50;;;23.15;45.71
65227;BME280;51805;49.012;12.104;2023-04-04T10:15:00;98600.47;;;23.22;45.64
65227;BME280;51805;49.012;12.104;2023-04-04T10:17:39;98605.59;;;23.18;45.69
65227;BME280;51805;49.012;12.104;2023-04-04T10:20:07;98589.88;;;23.15;45.55
65227;BME280;51805;49.012;12.104;2023-04-04T10:22:33;98597.47;;;23.18;45.63
65227;BME280;51805;49.012;12.104;2023-04-04T10:24:59;98590.72;;;23.21;45.49
65227;BME280;51805;49.012;12.104;2023-04-04T10:27:24;98582.31;;;23.17;45.66
65227;BME280;51805;49.012;12.104;2023-04-04T10:29:51;98577.69;;;23.13;45.55
65227;BME280;51805;49.012;12.104;2023-04-04T10:32:32;98584.47;;;23.20;45.52
65227;BME280;51805;49.012;12.104;2023-04-04T10:35:06;98575.53;;;23.15;45.45
65227;BME280;51805;49.012;12.104;2023-04-04T10:37:37;98573.06;;;23.18;45.52
65227;BME280;51805;49.012;12.104;2023-04-04T10:40:08;98570.91;;;23.15;45.54
65227;BME280;51805;49.012;12.104;2023-04-04T10:42:38;98576.59;;;23.19;45.44
65227;BME280;51805;49.012;12.104;2023-04-04T10:45:07;98572.81;;;23.15;45.54
65227;BME280;51805;49.012;12.104;2023-04-04T10:47:32;98567.38;;;23.10;45.59
65227;BME280;51805;49.012;12.104;2023-04-04T10:49:58;98568.47;;;23.19;45.52
65227;BME280;51805;49.012;12.104;2023-04-04T10:52:26;98573.91;;;23.24;45.46
65227;BME280;51805;49.012;12.104;2023-04-04T10:54:54;98563.88;;;23.24;45.52
65227;BME280;51805;49.012;12.104;2023-04-04T10:57:22;98566.88;;;23.23;45.43
65227;BME280;51805;49.012;12.104;2023-04-04T11:00:04;98567.41;;;23.25;45.53
65227;BME280;51805;49.012;12.104;2023-04-04T11:02:58;98558.72;;;23.23;45.54
65227;BME280;51805;49.012;12.104;2023-04-04T11:08:01;98542.97;;;23.20;45.42
65227;BME280;51805;49.012;12.104;2023-04-04T11:10:28;98547.63;;;23.24;45.51
65227;BME280;51805;49.012;12.104;2023-04-04T11:12:55;98544.66;;;23.26;45.58
65227;BME280;51805;49.012;12.104;2023-04-04T11:15:22;98549.00;;;23.27;45.60
65227;BME280;51805;49.012;12.104;2023-04-04T11:20:21;98540.03;;;23.26;45.62
65227;BME280;51805;49.012;12.104;2023-04-04T11:22:49;98537.06;;;23.28;45.71
65227;BME280;51805;49.012;12.104;2023-04-04T11:27:48;98532.16;;;23.25;45.57
65227;BME280;51805;49.012;12.104;2023-04-04T11:30:13;98521.00;;;23.21;45.67
65227;BME280;51805;49.012;12.104;2023-04-04T11:32:42;98519.09;;;23.17;45.70
65227;BME280;51805;49.012;12.104;2023-04-04T11:35:07;98530.03;;;23.32;45.66
65227;BME280;51805;49.012;12.104;2023-04-04T11:37:42;98526.50;;;23.31;45.73
65227;BME280;51805;49.012;12.104;2023-04-04T11:40:10;98518.06;;;23.33;45.69
65227;BME280;51805;49.012;12.104;2023-04-04T11:42:36;98517.53;;;23.26;45.73
65227;BME280;51805;49.012;12.104;2023-04-04T11:45:04;98513.19;;;23.25;45.81
65227;BME280;51805;49.012;12.104;2023-04-04T11:47:30;98517.00;;;23.29;45.75
65227;BME280;51805;49.012;12.104;2023-04-04T11:49:58;98500.44;;;23.25;45.85
65227;BME280;51805;49.012;12.104;2023-04-04T11:52:23;98509.13;;;23.27;45.84
65227;BME280;51805;49.012;12.104;2023-04-04T11:54:48;98507.22;;;23.23;45.78
65227;BME280;51805;49.012;12.104;2023-04-04T11:57:15;98512.13;;;23.26;45.94
65227;BME280;51805;49.012;12.104;2023-04-04T11:59:43;98514.25;;;23.24;45.83
65227;BME280;51805;49.012;12.104;2023-04-04T12:02:08;98512.63;;;23.23;45.82
65227;BME280;51805;49.012;12.104;2023-04-04T12:04:35;98497.41;;;23.17;45.87
65227;BME280;51805;49.012;12.104;2023-04-04T12:07:01;98507.72;;;23.20;46.21
65227;BME280;51805;49.012;12.104;2023-04-04T12:09:29;98512.13;;;23.26;45.83
65227;BME280;51805;49.012;12.104;2023-04-04T12:11:55;98508.00;;;23.23;45.90
65227;BME280;51805;49.012;12.104;2023-04-04T12:14:22;98517.00;;;23.29;45.86
65227;BME280;51805;49.012;12.104;2023-04-04T12:16:49;98505.06;;;23.30;45.75
65227;BME280;51805;49.012;12.104;2023-04-04T12:19:16;98514.81;;;23.31;45.79
65227;BME280;51805;49.012;12.104;2023-04-04T12:21:41;98511.84;;;23.27;45.88
65227;BME280;51805;49.012;12.104;2023-04-04T12:24:07;98497.47;;;23.27;46.01
65227;BME280;51805;49.012;12.104;2023-04-04T12:26:36;98495.28;;;23.24;45.75
65227;BME280;51805;49.012;12.104;2023-04-04T12:29:03;98507.22;;;23.28;45.91
65227;BME280;51805;49.012;12.104;2023-04-04T12:31:29;98506.41;;;23.32;45.86
65227;BME280;51805;49.012;12.104;2023-04-04T12:33:54;98503.41;;;23.34;46.02
65227;BME280;51805;49.012;12.104;2023-04-04T12:36:20;98500.19;;;23.32;45.88
65227;BME280;51805;49.012;12.104;2023-04-04T12:39:15;98478.44;;;23.22;45.95
65227;BME280;51805;49.012;12.104;2023-04-04T12:42:00;98494.22;;;23.30;46.04
65227;BME280;51805;49.012;12.104;2023-04-04T12:44:31;98495.00;;;23.35;45.87
65227;BME280;51805;49.012;12.104;2023-04-04T12:47:02;98492.84;;;23.37;45.96
65227;BME280;51805;49.012;12.104;2023-04-04T12:49:33;98468.97;;;23.24;46.02
65227;BME280;51805;49.012;12.104;2023-04-04T12:51:59;98493.94;;;23.36;45.99
65227;BME280;51805;49.012;12.104;2023-04-04T12:54:26;98499.88;;;23.38;45.95